This is the latest recevied weather packets stored in our database for station/object VK3CG. If no packets are shown the sender has not sent any weather packets the latest 10 day(s).
| Time | Temp. | Humidity | Pressure | Rain* | Wind** | Luminosity | Snow |
|---|---|---|---|---|---|---|---|
| 1777448727 | 17.78° C | 44% | 1038 hPa | 0 mm | - | 0 W/m² | - |
| 1777447821 | 19.44° C | 38% | 1037.9 hPa | 0 mm | - | 0 W/m² | - |
| 1777446923 | 20° C | 36% | 1037.9 hPa | 0 mm | - | 11 W/m² | - |
| 1777446021 | 20.56° C | 35% | 1037.7 hPa | 0 mm | - | 16 W/m² | - |
| 1777445119 | 21.11° C | 34% | 1037.6 hPa | 0 mm | - | 26 W/m² | - |
| 1777444219 | 21.11° C | 34% | 1037.6 hPa | 0 mm | - | 30 W/m² | - |
| 1777443326 | 21.67° C | 34% | 1037.6 hPa | 0 mm | - | 70 W/m² | - |
| 1777442434 | 21.67° C | 34% | 1037.5 hPa | 0 mm | - | 72 W/m² | - |
| 1777441516 | 22.22° C | 34% | 1037.7 hPa | 0 mm | - | 107 W/m² | - |
| 1777440617 | 21.67° C | 35% | 1037.5 hPa | 0 mm | - | 113 W/m² | - |
| 1777439746 | 22.22° C | 33% | 1037.6 hPa | 0 mm | - | 98 W/m² | - |
| 1777438815 | 22.22° C | 34% | 1037.6 hPa | 0 mm | - | 111 W/m² | - |
| 1777437913 | 22.22° C | 35% | 1037.5 hPa | 0 mm | - | 220 W/m² | - |
| 1777437012 | 22.22° C | 39% | 1037.5 hPa | 0 mm | - | 394 W/m² | - |
| 1777436112 | 22.22° C | 38% | 1037.6 hPa | 0 mm | - | 227 W/m² | - |
| 1777435212 | 22.78° C | 37% | 1037.6 hPa | 0 mm | - | 589 W/m² | - |
| 1777434308 | 22.22° C | 38% | 1037.8 hPa | 0 mm | - | 619 W/m² | - |
| 1777433406 | 22.22° C | 40% | 1037.9 hPa | 0 mm | - | 258 W/m² | - |
| 1777432505 | 22.22° C | 40% | 1038.1 hPa | 0 mm | - | 524 W/m² | - |
| 1777431605 | 22.22° C | 40% | 1038.3 hPa | 0 mm | - | 178 W/m² | - |
| 1777430703 | 21.11° C | 44% | 1038.7 hPa | 0 mm | - | 513 W/m² | - |
| 1777429805 | 21.11° C | 41% | 1038.9 hPa | 0 mm | - | 568 W/m² | - |
| 1777428903 | 21.67° C | 40% | 1039 hPa | 0 mm | - | 376 W/m² | - |
| 1777428001 | 21.67° C | 40% | 1039.1 hPa | 0 mm | - | 459 W/m² | - |
| 1777427160 | 21.67° C | 39% | 1039.2 hPa | 0 mm | - | 601 W/m² | - |
* Rain latest hour (hover to see other rain measurements)
** Current wind speed in m/s (hover to see current wind gust speed)